createdAt,value
2018-09-17T00:01:20.313Z,99.90
2018-09-17T00:03:48.412Z,99.90
2018-09-17T00:06:16.438Z,99.90
2018-09-17T00:08:44.489Z,99.90
2018-09-17T00:11:12.534Z,99.90
2018-09-17T00:13:40.594Z,99.90
2018-09-17T00:16:08.629Z,99.90
2018-09-17T00:18:36.678Z,99.90
2018-09-17T00:21:04.741Z,99.90
2018-09-17T00:23:32.788Z,99.90
2018-09-17T00:26:01.000Z,99.90
2018-09-17T00:28:29.048Z,99.90
2018-09-17T00:30:57.109Z,99.90
2018-09-17T00:33:25.177Z,99.90
2018-09-17T00:35:53.251Z,99.90
2018-09-17T00:38:21.308Z,99.90
2018-09-17T00:40:49.423Z,99.90
2018-09-17T00:43:17.454Z,99.90
2018-09-17T00:45:45.569Z,99.90
2018-09-17T00:48:13.598Z,99.90
2018-09-17T00:50:41.640Z,99.90
2018-09-17T00:53:09.718Z,99.90
2018-09-17T00:55:37.745Z,99.90
2018-09-17T00:58:06.036Z,99.90
2018-09-17T01:00:34.026Z,99.90
2018-09-17T01:03:02.160Z,99.90
2018-09-17T01:05:30.290Z,99.90
2018-09-17T01:07:58.373Z,99.90
2018-09-17T01:10:26.411Z,99.90
2018-09-17T01:12:54.449Z,99.90
2018-09-17T01:15:22.485Z,99.90
2018-09-17T01:17:50.553Z,99.90
2018-09-17T01:20:18.587Z,99.90
2018-09-17T01:22:46.721Z,99.90
2018-09-17T01:25:14.797Z,99.90
2018-09-17T01:27:42.835Z,99.90
2018-09-17T01:30:10.890Z,99.90
2018-09-17T01:32:38.933Z,99.90
2018-09-17T01:35:07.081Z,99.90
2018-09-17T01:37:35.126Z,99.90
2018-09-17T01:40:03.237Z,99.90
2018-09-17T01:42:31.728Z,99.90
2018-09-17T01:44:59.949Z,99.90
2018-09-17T01:47:28.065Z,99.90
2018-09-17T01:49:56.246Z,99.90
2018-09-17T01:52:24.345Z,99.90
2018-09-17T01:54:52.393Z,99.90
2018-09-17T01:57:20.562Z,99.90
2018-09-17T01:59:48.646Z,99.90
2018-09-17T02:02:16.692Z,99.90
2018-09-17T02:04:44.764Z,99.90
2018-09-17T02:07:12.885Z,99.90
2018-09-17T02:09:41.644Z,99.90
2018-09-17T02:12:11.266Z,99.90
2018-09-17T02:14:39.986Z,99.90
2018-09-17T02:17:08.134Z,99.90
2018-09-17T02:19:36.706Z,99.90
2018-09-17T02:22:04.806Z,99.90
2018-09-17T02:24:32.902Z,99.90
2018-09-17T02:27:00.961Z,99.90
2018-09-17T02:29:29.133Z,99.90
2018-09-17T02:31:57.179Z,99.90
2018-09-17T02:34:25.437Z,99.90
2018-09-17T02:36:53.822Z,99.90
2018-09-17T02:39:21.902Z,99.90
2018-09-17T02:41:50.350Z,99.90
2018-09-17T02:44:18.530Z,99.90
2018-09-17T02:46:46.567Z,99.90
2018-09-17T02:49:14.618Z,99.90
2018-09-17T02:51:42.653Z,99.90
2018-09-17T02:54:10.698Z,99.90
2018-09-17T02:56:38.820Z,99.90
2018-09-17T02:59:06.845Z,99.90
2018-09-17T03:01:34.930Z,99.90
2018-09-17T03:04:02.986Z,99.90
2018-09-17T03:06:31.073Z,99.90
2018-09-17T03:08:59.129Z,99.90
2018-09-17T03:11:27.181Z,99.90
2018-09-17T03:13:55.327Z,99.90
2018-09-17T03:16:23.477Z,99.90
2018-09-17T03:18:52.477Z,99.90
2018-09-17T03:21:20.530Z,99.90
2018-09-17T03:23:48.817Z,99.90
2018-09-17T03:26:17.509Z,99.90
2018-09-17T03:28:45.557Z,99.90
2018-09-17T03:31:13.616Z,99.90
2018-09-17T03:33:41.676Z,99.90
2018-09-17T03:36:09.723Z,99.90
2018-09-17T03:38:39.415Z,99.90
2018-09-17T03:41:08.020Z,99.90
2018-09-17T03:43:37.087Z,99.90
2018-09-17T03:46:05.151Z,99.90
2018-09-17T03:48:34.255Z,99.90
2018-09-17T03:51:03.141Z,99.90
2018-09-17T03:53:31.524Z,99.90
2018-09-17T03:55:59.678Z,99.90
2018-09-17T03:58:28.282Z,99.90
2018-09-17T04:00:56.405Z,99.90
2018-09-17T04:03:24.454Z,99.90
2018-09-17T04:05:52.511Z,99.90
2018-09-17T04:08:20.561Z,99.90
2018-09-17T04:10:48.625Z,99.90
2018-09-17T04:13:16.734Z,99.90
2018-09-17T04:15:44.772Z,99.90
2018-09-17T04:18:12.951Z,99.90
2018-09-17T04:20:41.051Z,99.90
2018-09-17T04:23:09.091Z,99.90
2018-09-17T04:25:37.143Z,99.90
2018-09-17T04:28:05.234Z,99.90
2018-09-17T04:30:33.310Z,99.90
2018-09-17T04:33:02.495Z,99.90
2018-09-17T04:35:30.586Z,99.90
2018-09-17T04:37:58.653Z,99.90
2018-09-17T04:40:26.720Z,99.90
2018-09-17T04:42:54.795Z,99.90
2018-09-17T04:45:22.903Z,99.90
2018-09-17T04:47:50.950Z,99.90
2018-09-17T04:50:19.014Z,99.90
2018-09-17T04:52:47.087Z,99.90
2018-09-17T04:55:15.192Z,99.90
2018-09-17T04:57:43.341Z,99.90
2018-09-17T05:00:11.364Z,99.90
2018-09-17T05:02:39.490Z,99.90
2018-09-17T05:05:07.525Z,99.90
2018-09-17T05:07:35.633Z,99.90
2018-09-17T05:10:03.735Z,99.90
2018-09-17T05:12:31.878Z,99.90
2018-09-17T05:14:59.962Z,99.90
2018-09-17T05:17:28.001Z,99.90
2018-09-17T05:19:56.130Z,99.90
2018-09-17T05:22:24.173Z,99.90
2018-09-17T05:24:52.221Z,99.90
2018-09-17T05:27:20.340Z,99.90
2018-09-17T05:29:48.399Z,99.90
2018-09-17T05:32:16.461Z,99.90
2018-09-17T05:34:44.528Z,99.90
2018-09-17T05:37:12.594Z,99.90
2018-09-17T05:39:40.629Z,99.90
2018-09-17T05:42:08.795Z,99.90
2018-09-17T05:44:36.921Z,99.90
2018-09-17T05:47:05.099Z,99.90
2018-09-17T05:49:33.133Z,99.90
2018-09-17T05:52:01.201Z,99.90
2018-09-17T05:54:29.247Z,99.90
2018-09-17T05:56:57.336Z,99.90
2018-09-17T05:59:25.466Z,99.90
2018-09-17T06:01:53.673Z,99.90
2018-09-17T06:04:21.690Z,99.90
2018-09-17T06:06:49.792Z,99.90
2018-09-17T06:09:17.830Z,99.90
2018-09-17T06:11:46.007Z,99.90
2018-09-17T06:14:14.131Z,99.90
2018-09-17T06:16:42.168Z,99.90
2018-09-17T06:19:10.344Z,99.90
2018-09-17T06:21:38.518Z,99.90
2018-09-17T06:24:06.645Z,99.90
2018-09-17T06:26:34.820Z,99.90
2018-09-17T06:29:02.889Z,99.90
2018-09-17T06:31:31.017Z,99.90
2018-09-17T06:33:59.290Z,99.90
2018-09-17T06:36:27.500Z,99.90
2018-09-17T06:38:55.549Z,99.90
2018-09-17T06:41:24.329Z,99.90
2018-09-17T06:43:52.436Z,99.90
2018-09-17T06:46:20.537Z,99.90
2018-09-17T06:48:48.657Z,99.90
2018-09-17T06:51:16.982Z,99.90
2018-09-17T06:53:45.171Z,99.90
2018-09-17T06:56:13.177Z,99.90
2018-09-17T06:58:41.257Z,99.90
2018-09-17T07:01:09.330Z,99.90
2018-09-17T07:03:37.381Z,99.90
2018-09-17T07:06:05.547Z,99.90
2018-09-17T07:08:33.637Z,99.90
2018-09-17T07:11:01.689Z,99.90
2018-09-17T07:13:29.801Z,99.90
2018-09-17T07:15:57.864Z,99.90
2018-09-17T07:18:25.999Z,99.90
2018-09-17T07:20:54.103Z,99.90
2018-09-17T07:23:22.341Z,99.90
2018-09-17T07:25:50.485Z,99.90
2018-09-17T07:28:18.512Z,99.90
2018-09-17T07:30:46.658Z,99.90
2018-09-17T07:33:14.730Z,99.90
2018-09-17T07:35:42.763Z,99.90
2018-09-17T07:38:10.818Z,99.90
2018-09-17T07:40:38.930Z,99.90
2018-09-17T07:43:06.948Z,99.90
2018-09-17T07:45:35.176Z,99.90
2018-09-17T07:48:03.227Z,99.90
2018-09-17T07:50:31.276Z,99.90
2018-09-17T07:52:59.407Z,99.90
2018-09-17T07:55:27.421Z,99.90
2018-09-17T07:57:55.503Z,99.90
2018-09-17T08:00:24.172Z,99.90
2018-09-17T08:02:52.261Z,99.90
2018-09-17T08:05:20.489Z,99.90
2018-09-17T08:07:48.840Z,99.90
2018-09-17T08:10:19.888Z,99.90
2018-09-17T08:12:48.246Z,99.90
2018-09-17T08:15:16.409Z,99.90
2018-09-17T08:17:44.449Z,99.90
2018-09-17T08:20:12.890Z,99.90
2018-09-17T08:22:41.049Z,99.90
2018-09-17T08:25:09.650Z,99.90
2018-09-17T08:27:37.803Z,99.90
2018-09-17T08:30:06.480Z,99.90
2018-09-17T08:32:34.872Z,99.90
2018-09-17T08:35:03.113Z,99.90
2018-09-17T08:37:31.140Z,99.90
2018-09-17T08:39:59.383Z,99.90
2018-09-17T08:42:27.429Z,99.90
2018-09-17T08:44:55.480Z,99.70
2018-09-17T08:47:23.521Z,99.00
2018-09-17T08:49:51.571Z,98.40
2018-09-17T08:52:19.630Z,97.60
2018-09-17T08:54:53.213Z,97.70
2018-09-17T08:57:26.834Z,96.40
2018-09-17T09:00:00.465Z,95.70
2018-09-17T09:02:34.025Z,94.50
2018-09-17T09:05:07.646Z,93.10
2018-09-17T09:07:36.493Z,93.00
2018-09-17T09:10:10.277Z,92.30
2018-09-17T09:12:39.735Z,92.00
2018-09-17T09:15:13.337Z,92.00
2018-09-17T09:17:41.365Z,91.40
2018-09-17T09:20:09.549Z,90.00
2018-09-17T09:22:37.746Z,90.00
2018-09-17T09:25:05.902Z,89.40
2018-09-17T09:27:33.968Z,89.10
2018-09-17T09:30:02.064Z,88.10
2018-09-17T09:32:30.261Z,88.60
2018-09-17T09:34:58.532Z,88.70
2018-09-17T09:37:26.807Z,86.60
2018-09-17T09:39:54.915Z,85.10
2018-09-17T09:42:22.979Z,84.20
2018-09-17T09:44:51.078Z,82.90
2018-09-17T09:47:19.137Z,85.10
2018-09-17T09:49:47.167Z,81.60
2018-09-17T09:52:15.221Z,80.80
2018-09-17T09:54:43.286Z,79.20
2018-09-17T09:57:11.361Z,79.90
2018-09-17T09:59:39.405Z,80.00
2018-09-17T10:02:12.972Z,77.60
2018-09-17T10:04:41.018Z,78.20
2018-09-17T10:07:09.180Z,77.70
2018-09-17T10:09:42.825Z,77.50
2018-09-17T10:12:16.652Z,76.50
2018-09-17T10:14:50.235Z,75.00
2018-09-17T10:17:23.795Z,75.20
2018-09-17T10:19:52.780Z,75.10
2018-09-17T10:22:21.093Z,75.10
2018-09-17T10:24:49.099Z,73.80
2018-09-17T10:27:17.954Z,72.80
2018-09-17T10:29:46.136Z,72.30
2018-09-17T10:32:14.274Z,71.60
2018-09-17T10:34:42.763Z,70.50
2018-09-17T10:37:11.175Z,68.30
2018-09-17T10:39:39.256Z,68.90
2018-09-17T10:42:07.253Z,67.90
2018-09-17T10:44:35.331Z,66.30
2018-09-17T10:47:03.565Z,66.30
2018-09-17T10:49:31.570Z,64.50
2018-09-17T10:51:59.673Z,64.00
2018-09-17T10:54:27.713Z,64.90
2018-09-17T10:56:55.765Z,64.30
2018-09-17T10:59:23.877Z,63.70
2018-09-17T11:01:51.947Z,61.50
2018-09-17T11:04:20.017Z,61.70
2018-09-17T11:06:48.073Z,61.70
2018-09-17T11:09:16.115Z,61.10
2018-09-17T11:11:44.162Z,60.40
2018-09-17T11:14:12.220Z,61.80
2018-09-17T11:16:40.298Z,60.90
2018-09-17T11:19:08.459Z,59.10
2018-09-17T11:21:36.530Z,58.90
2018-09-17T11:24:04.806Z,59.20
2018-09-17T11:26:32.886Z,58.90
2018-09-17T11:29:00.944Z,58.70
2018-09-17T11:31:29.061Z,58.00
2018-09-17T11:33:57.193Z,57.80
2018-09-17T11:36:25.229Z,57.20
2018-09-17T11:38:53.300Z,57.50
2018-09-17T11:41:21.366Z,57.10
2018-09-17T11:43:49.519Z,57.50
2018-09-17T11:46:17.537Z,56.60
2018-09-17T11:48:45.637Z,56.00
2018-09-17T11:51:13.717Z,56.30
2018-09-17T11:53:41.786Z,56.00
2018-09-17T11:56:09.818Z,55.70
2018-09-17T11:58:37.877Z,55.40
2018-09-17T12:01:11.422Z,54.40
2018-09-17T12:03:45.003Z,51.70
2018-09-17T12:06:17.523Z,51.00
2018-09-17T12:08:45.665Z,50.60
2018-09-17T12:11:13.733Z,50.20
2018-09-17T12:13:41.878Z,50.20
2018-09-17T12:16:09.890Z,49.00
2018-09-17T12:18:37.936Z,49.40
2018-09-17T12:21:05.965Z,47.80
2018-09-17T12:23:34.057Z,47.20
2018-09-17T12:26:02.177Z,46.30
2018-09-17T12:28:30.222Z,47.30
2018-09-17T12:30:58.265Z,46.80
2018-09-17T12:33:26.391Z,46.10
2018-09-17T12:35:54.463Z,45.40
2018-09-17T12:38:22.534Z,45.40
2018-09-17T12:40:50.576Z,46.00
2018-09-17T12:43:18.711Z,45.70
2018-09-17T12:45:46.773Z,44.70
2018-09-17T12:48:14.786Z,44.40
2018-09-17T12:50:42.893Z,45.20
2018-09-17T12:53:10.928Z,45.60
2018-09-17T12:55:39.145Z,44.30
2018-09-17T12:58:07.239Z,43.30
2018-09-17T13:00:35.321Z,42.80
2018-09-17T13:03:03.341Z,41.70
2018-09-17T13:05:31.432Z,41.40
2018-09-17T13:07:59.538Z,42.00
2018-09-17T13:10:27.676Z,42.10
2018-09-17T13:12:55.757Z,41.50
2018-09-17T13:15:23.817Z,41.60
2018-09-17T13:17:51.930Z,42.20
2018-09-17T13:20:19.968Z,40.80
2018-09-17T13:22:48.045Z,40.60
2018-09-17T13:25:16.097Z,41.10
2018-09-17T13:27:44.150Z,40.00
2018-09-17T13:30:12.291Z,39.40
2018-09-17T13:32:40.361Z,39.30
2018-09-17T13:35:08.505Z,39.10
2018-09-17T13:37:36.593Z,38.70
2018-09-17T13:40:04.636Z,38.60
2018-09-17T13:42:32.742Z,38.20
2018-09-17T13:45:00.756Z,37.10
2018-09-17T13:47:28.881Z,36.50
2018-09-17T13:49:56.954Z,35.10
2018-09-17T13:52:24.955Z,33.60
2018-09-17T13:54:53.084Z,34.00
2018-09-17T13:57:21.175Z,34.20
2018-09-17T13:59:49.342Z,34.20
2018-09-17T14:02:17.394Z,34.90
2018-09-17T14:04:45.484Z,35.20
2018-09-17T14:07:13.532Z,34.80
2018-09-17T14:09:41.667Z,34.00
2018-09-17T14:12:09.740Z,33.30
2018-09-17T14:14:37.829Z,32.30
2018-09-17T14:17:05.960Z,32.20
2018-09-17T14:19:34.048Z,29.90
2018-09-17T14:22:02.194Z,28.90
2018-09-17T14:24:30.375Z,29.00
2018-09-17T14:26:58.545Z,29.00
2018-09-17T14:29:26.607Z,29.60
2018-09-17T14:32:00.192Z,29.60
2018-09-17T14:34:28.234Z,30.00
2018-09-17T14:36:56.294Z,29.60
2018-09-17T14:39:24.338Z,30.00
2018-09-17T14:41:52.421Z,29.60
2018-09-17T14:44:20.490Z,29.30
2018-09-17T14:46:48.569Z,29.50
2018-09-17T14:49:16.585Z,30.10
2018-09-17T14:51:44.749Z,30.70
2018-09-17T14:54:12.776Z,29.50
2018-09-17T14:56:40.834Z,29.20
2018-09-17T14:59:08.947Z,29.40
2018-09-17T15:01:37.150Z,29.50
2018-09-17T15:04:05.041Z,29.50
2018-09-17T15:06:33.106Z,29.40
2018-09-17T15:09:01.182Z,29.30
2018-09-17T15:11:29.299Z,29.30
2018-09-17T15:13:57.347Z,29.20
2018-09-17T15:16:25.553Z,29.20
2018-09-17T15:18:53.533Z,28.80
2018-09-17T15:21:21.612Z,29.00
2018-09-17T15:23:49.726Z,28.90
2018-09-17T15:26:17.755Z,29.00
2018-09-17T15:28:45.780Z,28.30
2018-09-17T15:31:13.877Z,28.30
2018-09-17T15:33:41.922Z,28.40
2018-09-17T15:36:09.975Z,28.20
2018-09-17T15:38:38.012Z,28.20
2018-09-17T15:41:06.243Z,28.70
2018-09-17T15:43:34.268Z,28.90
2018-09-17T15:46:02.340Z,29.00
2018-09-17T15:48:30.369Z,29.00
2018-09-17T15:50:58.420Z,29.20
2018-09-17T15:53:26.568Z,29.60
2018-09-17T15:55:54.611Z,30.00
2018-09-17T15:58:22.732Z,30.40
2018-09-17T16:00:50.665Z,30.70
2018-09-17T16:03:18.742Z,30.90
2018-09-17T16:05:46.774Z,30.50
2018-09-17T16:08:14.920Z,30.90
2018-09-17T16:10:42.916Z,32.50
2018-09-17T16:13:10.995Z,33.10
2018-09-17T16:15:39.036Z,34.00
2018-09-17T16:18:07.181Z,34.40
2018-09-17T16:20:35.249Z,35.40
2018-09-17T16:23:03.561Z,35.50
2018-09-17T16:25:31.589Z,34.50
2018-09-17T16:27:59.677Z,35.60
2018-09-17T16:30:27.735Z,35.60
2018-09-17T16:32:55.817Z,36.10
2018-09-17T16:35:23.898Z,37.20
2018-09-17T16:37:51.970Z,36.70
2018-09-17T16:40:20.013Z,35.10
2018-09-17T16:42:48.080Z,36.20
2018-09-17T16:45:16.215Z,36.00
2018-09-17T16:47:44.265Z,37.30
2018-09-17T16:50:12.333Z,37.10
2018-09-17T16:52:40.523Z,38.00
2018-09-17T16:55:08.564Z,37.50
2018-09-17T16:57:36.625Z,38.30
2018-09-17T17:00:04.735Z,37.20
2018-09-17T17:02:33.660Z,38.30
2018-09-17T17:05:02.699Z,37.50
2018-09-17T17:07:30.709Z,37.00
2018-09-17T17:09:58.768Z,36.90
2018-09-17T17:12:26.847Z,37.50
2018-09-17T17:14:55.221Z,37.80
2018-09-17T17:17:23.262Z,38.70
2018-09-17T17:19:51.316Z,38.50
2018-09-17T17:22:19.459Z,38.60
2018-09-17T17:24:47.702Z,39.00
2018-09-17T17:27:15.758Z,40.40
2018-09-17T17:29:43.841Z,40.20
2018-09-17T17:32:11.909Z,40.50
2018-09-17T17:34:39.956Z,41.20
2018-09-17T17:37:08.064Z,41.70
2018-09-17T17:39:36.232Z,42.20
2018-09-17T17:42:06.875Z,43.40
2018-09-17T17:44:34.928Z,43.20
2018-09-17T17:47:02.966Z,43.80
2018-09-17T17:49:31.193Z,45.10
2018-09-17T17:51:59.339Z,44.80
2018-09-17T17:54:27.301Z,45.60
2018-09-17T17:56:55.315Z,45.40
2018-09-17T17:59:23.386Z,46.00
2018-09-17T18:01:51.438Z,46.00
2018-09-17T18:04:19.495Z,46.10
2018-09-17T18:06:47.630Z,46.60
2018-09-17T18:09:15.706Z,48.00
2018-09-17T18:11:43.740Z,48.50
2018-09-17T18:14:11.785Z,48.80
2018-09-17T18:16:39.825Z,49.80
2018-09-17T18:19:07.957Z,49.70
2018-09-17T18:21:36.051Z,51.10
2018-09-17T18:24:04.054Z,51.90
2018-09-17T18:26:32.098Z,52.00
2018-09-17T18:29:00.245Z,51.90
2018-09-17T18:31:28.282Z,52.70
2018-09-17T18:33:56.335Z,52.70
2018-09-17T18:36:25.373Z,52.50
2018-09-17T18:38:55.196Z,53.50
2018-09-17T18:41:24.789Z,53.30
2018-09-17T18:43:52.837Z,54.00
2018-09-17T18:46:20.880Z,55.00
2018-09-17T18:48:48.974Z,55.40
2018-09-17T18:51:17.099Z,56.50
2018-09-17T18:53:45.170Z,55.90
2018-09-17T18:56:13.252Z,56.50
2018-09-17T18:58:41.339Z,56.10
2018-09-17T19:01:09.385Z,57.70
2018-09-17T19:03:37.460Z,57.90
2018-09-17T19:06:05.821Z,57.50
2018-09-17T19:08:33.823Z,58.70
2018-09-17T19:11:01.911Z,57.90
2018-09-17T19:13:30.089Z,58.80
2018-09-17T19:15:58.877Z,59.90
2018-09-17T19:18:26.953Z,61.60
2018-09-17T19:20:55.500Z,61.50
2018-09-17T19:23:28.862Z,60.20
2018-09-17T19:25:57.070Z,60.30
2018-09-17T19:28:30.661Z,60.10
2018-09-17T19:30:58.770Z,63.20
2018-09-17T19:33:26.892Z,65.50
2018-09-17T19:35:55.741Z,66.40
2018-09-17T19:38:29.708Z,65.80
2018-09-17T19:40:58.349Z,65.80
2018-09-17T19:43:26.482Z,65.10
2018-09-17T19:46:00.211Z,67.30
2018-09-17T19:48:29.535Z,67.10
2018-09-17T19:51:03.409Z,70.70
2018-09-17T19:53:31.469Z,71.40
2018-09-17T19:55:59.607Z,73.30
2018-09-17T19:58:33.318Z,73.60
2018-09-17T20:01:01.453Z,75.10
2018-09-17T20:03:29.580Z,75.50
2018-09-17T20:06:03.174Z,77.40
2018-09-17T20:08:31.241Z,77.30
2018-09-17T20:10:59.325Z,78.50
2018-09-17T20:13:33.718Z,79.20
2018-09-17T20:16:02.417Z,81.30
2018-09-17T20:18:31.623Z,81.70
2018-09-17T20:20:59.865Z,82.50
2018-09-17T20:23:30.746Z,83.40
2018-09-17T20:25:58.817Z,84.50
2018-09-17T20:28:27.315Z,85.20
2018-09-17T20:30:56.577Z,86.00
2018-09-17T20:33:28.087Z,86.70
2018-09-17T20:35:56.722Z,87.70
2018-09-17T20:38:25.407Z,89.40
2018-09-17T20:40:53.727Z,90.40
2018-09-17T20:43:21.816Z,92.10
2018-09-17T20:45:50.445Z,93.40
2018-09-17T20:48:18.644Z,94.90
2018-09-17T20:50:46.830Z,94.60
2018-09-17T20:53:14.988Z,96.30
2018-09-17T20:55:43.241Z,97.00
2018-09-17T20:58:11.384Z,97.20
2018-09-17T21:00:39.565Z,97.50
2018-09-17T21:03:07.732Z,98.80
2018-09-17T21:05:35.769Z,99.30
2018-09-17T21:08:03.971Z,99.10
2018-09-17T21:10:31.982Z,99.90
2018-09-17T21:13:00.147Z,99.90
2018-09-17T21:15:28.112Z,99.90
2018-09-17T21:17:56.200Z,99.90
2018-09-17T21:20:24.298Z,99.90
2018-09-17T21:22:52.344Z,99.90
2018-09-17T21:25:20.432Z,99.90
2018-09-17T21:27:48.452Z,99.90
2018-09-17T21:30:16.550Z,99.90
2018-09-17T21:32:44.832Z,99.90
2018-09-17T21:35:13.136Z,99.90
2018-09-17T21:37:41.171Z,99.90
2018-09-17T21:40:09.229Z,99.90
2018-09-17T21:42:37.338Z,99.90
2018-09-17T21:45:06.045Z,99.90
2018-09-17T21:47:34.181Z,99.90
2018-09-17T21:50:02.229Z,99.90
2018-09-17T21:52:30.359Z,99.90
2018-09-17T21:54:58.398Z,99.90
2018-09-17T21:57:26.584Z,99.90
2018-09-17T21:59:54.617Z,99.90
2018-09-17T22:02:22.861Z,99.90
2018-09-17T22:04:51.050Z,99.90
2018-09-17T22:07:19.210Z,99.90
2018-09-17T22:09:47.494Z,99.90
2018-09-17T22:12:15.741Z,99.90
2018-09-17T22:14:43.822Z,99.90
2018-09-17T22:17:11.849Z,99.90
2018-09-17T22:19:39.909Z,99.90
2018-09-17T22:22:07.927Z,99.90
2018-09-17T22:24:35.995Z,99.90
2018-09-17T22:27:04.078Z,99.90
2018-09-17T22:29:32.120Z,99.90
2018-09-17T22:32:00.209Z,99.90
2018-09-17T22:34:28.272Z,99.90
2018-09-17T22:36:56.305Z,99.90
2018-09-17T22:39:24.429Z,99.90
2018-09-17T22:41:52.504Z,99.90
2018-09-17T22:44:20.554Z,99.90
2018-09-17T22:46:48.671Z,99.90
2018-09-17T22:49:16.719Z,99.90
2018-09-17T22:51:44.770Z,99.90
2018-09-17T22:54:12.841Z,99.90
2018-09-17T22:56:40.871Z,99.90
2018-09-17T22:59:09.001Z,99.90
2018-09-17T23:01:37.094Z,99.90
2018-09-17T23:04:05.162Z,99.90
2018-09-17T23:06:33.196Z,99.90
2018-09-17T23:09:01.255Z,99.90
2018-09-17T23:11:29.360Z,99.90
2018-09-17T23:13:57.444Z,99.90
2018-09-17T23:16:25.490Z,99.90
2018-09-17T23:18:53.585Z,99.90
2018-09-17T23:21:21.629Z,99.90
2018-09-17T23:23:49.724Z,99.90
2018-09-17T23:26:17.799Z,99.90
2018-09-17T23:28:45.862Z,99.90
2018-09-17T23:31:13.943Z,99.90
2018-09-17T23:33:41.992Z,99.90
2018-09-17T23:36:10.034Z,99.90
2018-09-17T23:38:38.165Z,99.90
2018-09-17T23:41:06.217Z,99.90
2018-09-17T23:43:34.280Z,99.90
2018-09-17T23:46:02.364Z,99.90
2018-09-17T23:48:30.448Z,99.90
2018-09-17T23:50:58.481Z,99.90
2018-09-17T23:53:26.553Z,99.90
2018-09-17T23:55:54.577Z,99.90
2018-09-17T23:58:22.637Z,99.90
